Time;durP1;ratioP1;P1;durP2;ratioP2;P2;SDS_P1;SDS_P2;PMS_P1;PMS_P2;Temp;Humidity;BMP_temperature;BMP_pressure;BME280_temperature;BME280_humidity;BME280_pressure;Samples;Min_cycle;Max_cycle;Signal;HPM_P1;HPM_P2
2023/01/11 00:01:20;;;;;;;5.15;2.22;;;3.40;99.90;;;;;;5013582;28;20109;-60
2023/01/11 00:03:46;;;;;;;4.28;2.00;;;3.40;99.90;;;;;;5013976;28;20024;-59
2023/01/11 00:06:12;;;;;;;5.28;2.00;;;3.50;99.90;;;;;;5016082;28;20062;-60
2023/01/11 00:08:38;;;;;;;5.43;1.75;;;3.50;99.90;;;;;;5014142;28;20026;-58
2023/01/11 00:11:09;;;;;;;6.57;3.30;;;3.40;99.90;;;;;;5016602;28;20037;-58
2023/01/11 00:13:35;;;;;;;7.25;2.95;;;3.50;99.90;;;;;;5009320;28;20661;-59
2023/01/11 00:16:07;;;;;;;11.43;4.25;;;3.50;99.90;;;;;;5008248;28;20029;-59
2023/01/11 00:18:33;;;;;;;4.55;2.40;;;3.40;99.90;;;;;;5016687;28;20493;-60
2023/01/11 00:21:04;;;;;;;6.05;2.30;;;3.50;99.90;;;;;;5009887;28;20029;-59
2023/01/11 00:23:32;;;;;;;4.32;2.22;;;3.50;99.90;;;;;;5010545;28;20439;-59
2023/01/11 00:26:01;;;;;;;4.55;1.95;;;3.50;99.90;;;;;;5009585;28;20104;-60
2023/01/11 00:28:26;;;;;;;5.45;2.03;;;3.50;99.90;;;;;;5012582;28;20022;-58
2023/01/11 00:30:52;;;;;;;5.63;2.05;;;3.50;99.90;;;;;;5011446;28;20026;-60
2023/01/11 00:33:17;;;;;;;4.30;1.85;;;3.50;99.90;;;;;;5008143;28;20030;-59
2023/01/11 00:35:43;;;;;;;3.95;1.75;;;3.50;99.90;;;;;;5004584;28;20502;-59
2023/01/11 00:38:42;;;;;;;6.75;2.38;;;3.50;99.90;;;;;;5012778;28;20029;-59
2023/01/11 00:40:54;;;;;;;6.43;2.55;;;3.50;99.90;;;;;;5012945;28;20026;-61
2023/01/11 00:48:48;;;;;;;6.07;2.47;;;3.50;99.90;;;;;;5011824;28;20031;-58
2023/01/11 00:51:14;;;;;;;8.38;1.73;;;3.50;99.90;;;;;;5013100;28;20038;-59
2023/01/11 00:53:39;;;;;;;4.90;2.20;;;3.50;99.90;;;;;;5017925;28;20033;-61
2023/01/11 00:56:05;;;;;;;4.47;2.05;;;3.50;99.90;;;;;;5013366;28;20483;-60
2023/01/11 00:58:31;;;;;;;7.63;2.03;;;3.50;99.90;;;;;;5013902;28;20030;-59
2023/01/11 01:00:57;;;;;;;4.18;1.83;;;3.60;99.90;;;;;;5013566;28;20026;-60
2023/01/11 01:03:23;;;;;;;5.57;1.67;;;3.60;99.90;;;;;;5009403;28;20034;-59
2023/01/11 01:05:53;;;;;;;4.82;2.40;;;3.60;99.90;;;;;;5014616;28;20037;-60
2023/01/11 01:08:19;;;;;;;7.97;2.33;;;3.60;99.90;;;;;;5018004;28;20421;-60
2023/01/11 01:10:45;;;;;;;10.85;1.52;;;3.60;99.90;;;;;;5013776;28;20029;-60
2023/01/11 01:15:57;;;;;;;5.25;1.65;;;3.60;99.90;;;;;;5009631;28;20091;-59
2023/01/11 01:18:23;;;;;;;3.63;1.58;;;3.60;99.90;;;;;;5015904;28;20636;-58
2023/01/11 01:20:49;;;;;;;4.57;1.70;;;3.60;99.90;;;;;;5014797;28;20029;-58
2023/01/11 01:23:15;;;;;;;5.15;1.50;;;3.70;99.90;;;;;;5011061;28;20545;-59
2023/01/11 01:25:41;;;;;;;7.60;1.75;;;3.70;99.90;;;;;;5006625;28;20134;-59
2023/01/11 01:28:06;;;;;;;3.08;1.33;;;3.70;99.90;;;;;;5006423;28;20026;-58
2023/01/11 01:30:32;;;;;;;5.75;1.83;;;3.70;99.90;;;;;;5006130;28;20030;-59
2023/01/11 01:32:58;;;;;;;4.30;1.40;;;3.70;99.90;;;;;;5018185;28;20053;-58
2023/01/11 01:35:23;;;;;;;3.10;1.40;;;3.70;99.90;;;;;;5017322;28;20033;-57
2023/01/11 01:37:49;;;;;;;4.72;1.40;;;3.70;99.90;;;;;;5013970;28;20472;-59
2023/01/11 01:40:15;;;;;;;2.70;1.20;;;3.70;99.90;;;;;;5005797;28;20021;-59
2023/01/11 01:42:40;;;;;;;3.92;1.70;;;3.70;99.90;;;;;;5014743;28;20117;-57
2023/01/11 01:45:24;;;;;;;6.95;2.08;;;3.70;99.90;;;;;;5011822;28;20033;-59
2023/01/11 01:48:00;;;;;;;6.82;1.90;;;3.70;99.90;;;;;;5004738;28;20404;-59
2023/01/11 01:50:40;;;;;;;3.67;1.48;;;3.80;99.90;;;;;;5005082;28;20035;-59
2023/01/11 01:53:14;;;;;;;5.20;1.80;;;3.80;99.90;;;;;;5007410;28;20038;-58
2023/01/11 01:55:44;;;;;;;3.35;1.55;;;3.80;99.90;;;;;;5017431;28;20067;-59
2023/01/11 01:58:14;;;;;;;4.50;1.98;;;3.80;99.90;;;;;;5016961;28;20091;-59
2023/01/11 02:00:42;;;;;;;4.47;1.70;;;3.80;99.90;;;;;;5013764;28;20033;-58
2023/01/11 02:03:11;;;;;;;7.30;1.70;;;3.80;99.90;;;;;;5008713;28;20104;-58
2023/01/11 02:05:36;;;;;;;3.55;1.48;;;3.80;99.90;;;;;;5007621;28;20026;-60
2023/01/11 02:08:07;;;;;;;6.32;2.17;;;3.80;99.90;;;;;;5015137;28;20041;-59
2023/01/11 02:10:33;;;;;;;4.93;1.80;;;3.80;99.90;;;;;;5010140;28;20017;-59
2023/01/11 02:13:07;;;;;;;2.72;1.60;;;3.80;99.90;;;;;;5004994;28;20057;-62
2023/01/11 02:15:35;;;;;;;5.97;1.30;;;3.80;99.90;;;;;;5006036;28;20196;-58
2023/01/11 02:18:01;;;;;;;4.22;1.52;;;3.80;99.90;;;;;;5012960;28;20435;-59
2023/01/11 02:20:52;;;;;;;4.72;1.60;;;3.90;99.90;;;;;;5012755;28;20108;-60
2023/01/11 02:23:33;;;;;;;;;;;3.90;99.90;;;;;;4987782;28;20023;-60
2023/01/11 02:26:31;;;;;;;3.78;1.60;;;3.90;99.90;;;;;;5006818;28;19914;-59
2023/01/11 02:29:17;;;;;;;4.97;1.77;;;3.90;99.90;;;;;;4991908;28;20072;-59
2023/01/11 02:32:01;;;;;;;6.20;2.33;;;3.90;99.90;;;;;;5004654;28;20109;-59
2023/01/11 02:34:48;;;;;;;2.38;1.70;;;3.90;99.90;;;;;;5007592;28;20028;-59
2023/01/11 02:37:46;;;;;;;2.95;2.00;;;4.00;99.90;;;;;;5013719;28;20018;-60
2023/01/11 02:40:28;;;;;;;3.97;1.90;;;3.90;99.90;;;;;;4998213;28;20514;-60
2023/01/11 02:46:00;;;;;;;3.35;1.70;;;3.90;99.90;;;;;;4999099;28;20045;-58
2023/01/11 02:48:33;;;;;;;6.30;1.90;;;3.90;99.90;;;;;;5007481;28;20033;-58
2023/01/11 02:51:25;;;;;;;3.45;1.80;;;3.90;99.90;;;;;;5015209;28;20026;-60
2023/01/11 02:54:11;;;;;;;3.67;1.85;;;4.00;99.90;;;;;;5009511;28;20125;-61
2023/01/11 02:56:43;;;;;;;3.72;1.92;;;4.00;99.90;;;;;;5013867;28;20525;-60
2023/01/11 02:59:13;;;;;;;3.75;1.95;;;4.00;99.90;;;;;;5009573;28;20409;-59
2023/01/11 03:01:50;;;;;;;4.50;2.33;;;4.00;99.90;;;;;;5006097;28;20100;-60
2023/01/11 03:04:27;;;;;;;4.93;1.80;;;4.00;99.90;;;;;;5007114;28;20044;-59
2023/01/11 03:07:31;;;;;;;4.28;1.67;;;4.00;99.90;;;;;;5006836;28;20037;-59
2023/01/11 03:10:06;;;;;;;6.90;1.88;;;3.90;99.90;;;;;;4991750;28;20049;-58
2023/01/11 03:12:55;;;;;;;6.43;2.13;;;3.90;99.90;;;;;;5006483;28;20421;-61
2023/01/11 03:15:27;;;;;;;7.32;2.10;;;3.90;99.90;;;;;;5004218;28;20086;-60
2023/01/11 03:18:19;;;;;;;3.45;2.28;;;3.90;99.90;;;;;;5009522;28;20037;-59
2023/01/11 03:21:14;;;;;;;11.57;2.28;;;3.90;99.90;;;;;;5008151;28;20156;-59
2023/01/11 03:24:03;;;;;;;5.75;2.17;;;3.90;99.90;;;;;;5007327;28;20592;-60
2023/01/11 03:27:05;;;;;;;4.47;3.35;;;3.80;99.90;;;;;;5003843;28;20516;-59
2023/01/11 03:29:56;;;;;;;7.07;3.17;;;3.80;99.90;;;;;;4998755;28;20049;-58
2023/01/11 03:32:34;;;;;;;4.95;2.63;;;3.80;99.90;;;;;;5006499;28;20029;-58
2023/01/11 03:35:12;;;;;;;5.47;2.88;;;3.80;99.90;;;;;;5008967;28;20022;-57
2023/01/11 03:37:59;;;;;;;6.85;3.15;;;3.70;99.90;;;;;;5008988;28;20026;-60
2023/01/11 03:40:33;;;;;;;5.40;3.35;;;3.80;99.90;;;;;;5007310;28;20037;-58
2023/01/11 03:43:12;;;;;;;4.95;2.97;;;3.70;99.90;;;;;;5010839;28;20023;-58
2023/01/11 03:45:59;;;;;;;5.20;3.35;;;3.80;99.90;;;;;;5006430;28;20670;-58
2023/01/11 03:48:54;;;;;;;6.78;3.65;;;3.80;99.90;;;;;;5011880;28;20034;-59
2023/01/11 03:51:26;;;;;;;7.72;3.08;;;3.80;99.90;;;;;;5010278;28;20116;-59
2023/01/11 03:53:58;;;;;;;5.00;4.03;;;3.80;99.90;;;;;;5010895;28;20673;-60
2023/01/11 03:56:46;;;;;;;6.03;3.47;;;3.80;99.90;;;;;;5006734;28;20046;-58
2023/01/11 03:59:12;;;;;;;5.82;4.03;;;3.80;99.90;;;;;;4997412;28;20080;-59
2023/01/11 04:01:38;;;;;;;4.60;3.08;;;3.80;99.90;;;;;;5015052;28;20030;-59
2023/01/11 04:04:03;;;;;;;5.53;3.80;;;3.90;99.90;;;;;;5012017;28;20038;-57
2023/01/11 04:06:33;;;;;;;5.10;3.50;;;3.90;99.90;;;;;;5009899;28;20026;-59
2023/01/11 04:08:58;;;;;;;7.93;3.25;;;3.90;99.90;;;;;;5005900;28;20022;-59
2023/01/11 04:11:24;;;;;;;7.65;3.78;;;3.90;99.90;;;;;;5002745;28;20393;-58
2023/01/11 04:13:49;;;;;;;5.40;4.32;;;3.90;99.90;;;;;;5011403;28;20077;-61
2023/01/11 04:16:15;;;;;;;6.85;4.20;;;3.90;99.90;;;;;;5007424;28;20022;-59
2023/01/11 04:18:41;;;;;;;4.88;3.88;;;3.90;99.90;;;;;;5008764;28;20044;-59
2023/01/11 04:21:06;;;;;;;7.32;3.83;;;3.90;99.90;;;;;;5006040;28;20075;-61
2023/01/11 04:23:32;;;;;;;6.82;3.72;;;4.00;99.90;;;;;;5004606;28;20069;-59
2023/01/11 04:25:57;;;;;;;4.22;3.60;;;4.00;99.90;;;;;;5015905;28;20021;-60
2023/01/11 04:28:23;;;;;;;8.43;4.47;;;4.00;99.90;;;;;;5010617;28;20106;-59
2023/01/11 04:30:49;;;;;;;8.40;4.13;;;4.00;99.90;;;;;;5012651;28;20493;-59
2023/01/11 04:33:14;;;;;;;6.82;5.13;;;4.00;99.90;;;;;;5007110;28;20027;-61
2023/01/11 04:35:40;;;;;;;5.40;4.80;;;4.00;99.90;;;;;;5009067;28;20037;-60
2023/01/11 04:38:06;;;;;;;5.90;5.03;;;4.00;99.90;;;;;;5007983;28;20065;-60
2023/01/11 04:40:32;;;;;;;8.27;4.70;;;4.00;99.90;;;;;;5008078;28;20052;-59
2023/01/11 04:43:01;;;;;;;7.68;4.72;;;4.00;99.90;;;;;;5008990;28;20033;-60
2023/01/11 04:45:27;;;;;;;8.77;5.30;;;4.00;99.90;;;;;;5010384;28;20108;-60
2023/01/11 04:47:55;;;;;;;8.30;4.70;;;4.00;99.90;;;;;;5010641;28;20477;-59
2023/01/11 04:50:21;;;;;;;5.25;4.70;;;4.00;99.90;;;;;;5014364;28;20029;-59
2023/01/11 04:52:47;;;;;;;6.53;5.30;;;4.00;99.90;;;;;;5016516;28;20064;-59
2023/01/11 04:55:12;;;;;;;7.00;5.90;;;4.00;99.90;;;;;;5006171;28;20423;-59
2023/01/11 04:57:38;;;;;;;11.23;4.85;;;4.00;99.90;;;;;;5011634;28;20026;-60
2023/01/11 05:00:09;;;;;;;6.88;5.50;;;4.00;99.90;;;;;;5011057;28;20044;-59
2023/01/11 05:02:39;;;;;;;7.63;5.68;;;4.00;99.90;;;;;;5010529;28;20785;-59
2023/01/11 05:05:05;;;;;;;10.13;5.85;;;4.00;99.90;;;;;;5007668;28;20062;-60
2023/01/11 05:07:31;;;;;;;9.82;6.25;;;4.00;99.90;;;;;;5014209;28;20477;-60
2023/01/11 05:09:57;;;;;;;8.90;6.40;;;4.00;99.90;;;;;;5006834;28;20041;-59
2023/01/11 05:12:23;;;;;;;10.10;5.80;;;4.00;99.90;;;;;;4997661;28;20030;-59
2023/01/11 05:14:48;;;;;;;9.18;5.97;;;4.10;99.90;;;;;;5012952;28;20037;-59
2023/01/11 05:17:15;;;;;;;9.63;5.75;;;4.10;99.90;;;;;;5009857;28;20114;-60
2023/01/11 05:19:41;;;;;;;10.23;5.53;;;4.10;99.90;;;;;;5008395;28;20076;-60
2023/01/11 05:22:08;;;;;;;8.27;7.10;;;4.10;99.90;;;;;;5005744;28;20033;-59
2023/01/11 05:24:33;;;;;;;9.65;5.70;;;4.10;99.90;;;;;;5002790;28;20120;-59
2023/01/11 05:27:00;;;;;;;7.88;5.68;;;4.10;99.90;;;;;;5008129;28;20147;-59
2023/01/11 05:29:27;;;;;;;9.00;6.05;;;4.20;99.90;;;;;;5016270;28;20485;-59
2023/01/11 05:31:53;;;;;;;7.80;5.90;;;4.20;99.90;;;;;;5011090;28;20026;-59
2023/01/11 05:34:19;;;;;;;9.60;7.40;;;4.20;99.90;;;;;;5007354;28;20018;-60
2023/01/11 05:36:44;;;;;;;16.08;7.28;;;4.20;99.90;;;;;;5009060;28;20024;-60
2023/01/11 05:39:12;;;;;;;10.95;7.20;;;4.20;99.90;;;;;;5008917;28;20436;-59
2023/01/11 05:41:37;;;;;;;7.90;7.10;;;4.20;99.90;;;;;;5011677;28;20789;-60
2023/01/11 05:46:48;;;;;;;9.10;7.15;;;4.30;99.90;;;;;;5003556;28;20048;-59
2023/01/11 05:49:14;;;;;;;12.63;8.18;;;4.30;99.90;;;;;;5006287;28;20113;-60
2023/01/11 05:51:42;;;;;;;24.40;8.73;;;4.30;99.90;;;;;;5011808;28;20034;-59
2023/01/11 05:54:11;;;;;;;10.70;7.80;;;4.30;99.90;;;;;;5007293;28;20030;-59
2023/01/11 05:56:37;;;;;;;11.65;8.38;;;4.30;99.90;;;;;;5010182;28;20121;-60
2023/01/11 05:59:02;;;;;;;11.40;7.38;;;4.30;99.90;;;;;;5010490;28;20175;-59
2023/01/11 06:01:29;;;;;;;11.93;7.47;;;4.40;99.90;;;;;;5001759;28;20112;-59
2023/01/11 06:03:54;;;;;;;13.32;9.23;;;4.40;99.90;;;;;;5009163;28;20014;-60
2023/01/11 06:06:21;;;;;;;12.77;8.45;;;4.40;99.90;;;;;;5004447;28;20026;-59
2023/01/11 06:08:46;;;;;;;10.90;7.68;;;4.40;99.90;;;;;;5003899;28;20482;-59
2023/01/11 06:11:13;;;;;;;10.48;7.60;;;4.40;99.90;;;;;;5004277;28;20034;-58
2023/01/11 06:13:39;;;;;;;16.33;8.52;;;4.40;99.90;;;;;;5007048;28;20090;-61
2023/01/11 06:16:16;;;;;;;13.95;7.47;;;4.50;99.90;;;;;;5011939;28;20450;-61
2023/01/11 06:18:45;;;;;;;9.38;7.95;;;4.50;99.90;;;;;;5006551;28;20200;-62
2023/01/11 06:21:12;;;;;;;12.27;7.63;;;4.50;99.90;;;;;;5004168;28;20406;-60
2023/01/11 06:23:41;;;;;;;8.48;7.57;;;4.50;99.90;;;;;;5006085;28;20573;-60
2023/01/11 06:26:10;;;;;;;11.48;8.32;;;4.50;99.90;;;;;;5007765;28;20023;-61
2023/01/11 06:28:36;;;;;;;12.23;7.97;;;4.60;99.90;;;;;;5011908;28;20034;-58
2023/01/11 06:31:03;;;;;;;10.57;8.07;;;4.60;99.90;;;;;;5013312;28;20018;-62
2023/01/11 06:33:29;;;;;;;18.20;8.40;;;4.60;99.90;;;;;;5012504;28;20324;-60
2023/01/11 06:35:55;;;;;;;11.98;8.32;;;4.60;99.90;;;;;;5011852;28;20046;-61
2023/01/11 06:38:22;;;;;;;18.00;8.98;;;4.60;99.90;;;;;;5004914;28;20033;-61
2023/01/11 06:40:56;;;;;;;9.38;8.48;;;4.70;99.90;;;;;;5006394;28;20037;-60
2023/01/11 06:43:23;;;;;;;10.10;7.57;;;4.70;99.90;;;;;;5014034;28;20512;-62
2023/01/11 06:45:49;;;;;;;12.73;8.48;;;4.70;99.90;;;;;;5015170;28;20080;-60
2023/01/11 06:48:19;;;;;;;12.48;7.32;;;4.70;99.90;;;;;;5012386;28;20498;-59
2023/01/11 06:50:52;;;;;;;10.88;7.80;;;4.70;99.90;;;;;;5013111;28;20041;-60
2023/01/11 06:53:19;;;;;;;11.02;8.43;;;4.80;99.90;;;;;;5001336;28;20057;-58
2023/01/11 06:55:49;;;;;;;8.95;8.05;;;4.80;99.90;;;;;;5010945;28;20038;-59
2023/01/11 06:58:14;;;;;;;16.25;7.68;;;4.80;99.90;;;;;;5014373;28;20033;-60
2023/01/11 07:00:40;;;;;;;11.70;7.80;;;4.80;99.90;;;;;;5014307;28;20387;-61
2023/01/11 07:03:06;;;;;;;9.20;7.55;;;4.80;99.90;;;;;;5007970;28;20122;-60
2023/01/11 07:05:33;;;;;;;14.15;7.70;;;4.80;99.90;;;;;;5001561;28;20045;-61
2023/01/11 07:07:59;;;;;;;13.63;8.27;;;4.90;99.90;;;;;;5012333;28;20068;-61
2023/01/11 07:10:25;;;;;;;13.35;8.60;;;4.90;99.90;;;;;;5009315;28;20417;-60
2023/01/11 07:12:52;;;;;;;10.95;8.32;;;4.90;99.90;;;;;;5009657;28;20715;-60
2023/01/11 07:15:18;;;;;;;12.00;8.63;;;4.90;99.90;;;;;;5005796;28;20034;-59
2023/01/11 07:17:46;;;;;;;10.40;8.43;;;4.90;99.90;;;;;;5007013;28;20040;-59
2023/01/11 07:20:12;;;;;;;16.63;8.68;;;4.90;99.90;;;;;;5011457;28;20026;-60
2023/01/11 07:22:38;;;;;;;10.45;8.93;;;4.90;99.90;;;;;;5009669;28;20118;-59
2023/01/11 07:25:04;;;;;;;18.30;9.20;;;4.90;99.90;;;;;;5008148;28;20112;-60
2023/01/11 07:27:30;;;;;;;14.80;9.90;;;5.00;99.90;;;;;;5012245;28;20021;-60
2023/01/11 07:29:58;;;;;;;15.20;9.48;;;5.00;99.90;;;;;;5009983;28;20037;-59
2023/01/11 07:32:25;;;;;;;16.02;10.52;;;5.00;99.90;;;;;;5009681;28;20788;-59
2023/01/11 07:34:51;;;;;;;13.55;9.55;;;5.00;99.90;;;;;;5009953;28;20030;-59
2023/01/11 07:37:16;;;;;;;17.92;10.27;;;5.00;99.90;;;;;;5000986;28;20029;-59
2023/01/11 07:39:42;;;;;;;11.90;9.82;;;5.00;99.90;;;;;;5009219;28;20041;-60
2023/01/11 07:44:54;;;;;;;16.83;10.23;;;5.00;99.90;;;;;;5009883;28;20426;-60
2023/01/11 07:47:19;;;;;;;23.67;10.13;;;5.00;99.90;;;;;;5008209;28;20033;-61
2023/01/11 07:49:45;;;;;;;14.20;10.68;;;5.00;99.90;;;;;;5009906;28;20033;-60
2023/01/11 07:52:11;;;;;;;17.48;10.40;;;5.00;99.90;;;;;;5006034;28;20053;-60
2023/01/11 07:54:36;;;;;;;14.43;10.60;;;5.00;99.90;;;;;;5010572;28;20400;-60
2023/01/11 07:57:02;;;;;;;19.38;11.80;;;5.00;99.90;;;;;;5010164;28;20026;-62
2023/01/11 07:59:29;;;;;;;18.02;11.70;;;5.00;99.90;;;;;;5007993;28;20441;-61
2023/01/11 08:01:55;;;;;;;20.83;11.13;;;5.00;99.90;;;;;;5012305;28;20030;-60
2023/01/11 08:04:20;;;;;;;21.75;12.60;;;5.00;99.90;;;;;;5009734;28;20038;-61
2023/01/11 08:06:46;;;;;;;21.40;11.85;;;5.00;99.90;;;;;;5008100;28;20041;-59
2023/01/11 08:09:12;;;;;;;17.67;12.43;;;5.00;99.90;;;;;;5007338;28;20045;-61
2023/01/11 08:14:40;;;;;;;16.02;12.07;;;5.10;99.90;;;;;;5020883;28;20070;-61
2023/01/11 08:17:15;;;;;;;17.92;12.00;;;5.00;99.90;;;;;;5014016;28;20076;-60
2023/01/11 08:19:41;;;;;;;16.45;11.40;;;5.10;99.90;;;;;;5007714;28;20065;-62
2023/01/11 08:22:08;;;;;;;17.52;12.38;;;5.10;99.90;;;;;;5003471;28;20017;-60
2023/01/11 08:24:34;;;;;;;14.30;11.85;;;5.10;99.90;;;;;;5011136;28;20045;-61
2023/01/11 08:27:01;;;;;;;18.85;12.85;;;5.10;99.90;;;;;;5013750;28;20085;-60
2023/01/11 08:29:26;;;;;;;23.90;12.20;;;5.20;99.90;;;;;;5015816;28;20027;-61
2023/01/11 08:31:52;;;;;;;16.95;12.68;;;5.20;99.90;;;;;;5013963;28;20489;-60
2023/01/11 08:34:17;;;;;;;18.80;12.98;;;5.20;99.90;;;;;;5016962;28;20029;-61
2023/01/11 08:36:43;;;;;;;17.52;10.82;;;5.20;99.90;;;;;;5014075;28;20057;-59
2023/01/11 08:39:09;;;;;;;20.95;11.98;;;5.20;99.90;;;;;;5013480;28;20033;-61
2023/01/11 08:41:37;;;;;;;20.48;14.40;;;5.10;99.90;;;;;;5011415;28;20033;-59
2023/01/11 08:44:03;;;;;;;18.92;12.85;;;5.20;99.90;;;;;;5008315;28;20029;-59
2023/01/11 08:46:29;;;;;;;19.45;13.07;;;5.20;99.90;;;;;;5015349;28;20045;-60
2023/01/11 08:48:55;;;;;;;13.70;11.35;;;5.20;99.90;;;;;;5014330;28;20017;-59
2023/01/11 08:51:20;;;;;;;28.35;13.90;;;5.20;99.90;;;;;;5017295;28;20029;-60
2023/01/11 08:53:46;;;;;;;16.05;11.82;;;5.20;99.90;;;;;;5013879;28;20037;-59
2023/01/11 08:56:12;;;;;;;26.88;13.98;;;5.20;99.90;;;;;;5012804;28;20038;-61
2023/01/11 08:58:37;;;;;;;20.85;13.88;;;5.20;99.90;;;;;;5009650;28;20073;-61
2023/01/11 09:01:07;;;;;;;29.70;15.75;;;5.20;99.90;;;;;;5025036;28;20037;-61
2023/01/11 09:03:33;;;;;;;24.63;12.48;;;5.30;99.90;;;;;;5002894;28;20489;-60
2023/01/11 09:05:58;;;;;;;30.90;13.25;;;5.30;99.90;;;;;;5008861;28;20481;-60
2023/01/11 09:08:25;;;;;;;19.60;11.88;;;5.40;99.90;;;;;;5010446;28;20112;-60
2023/01/11 09:10:51;;;;;;;13.40;11.57;;;5.40;99.90;;;;;;4995503;28;20084;-60
2023/01/11 09:13:17;;;;;;;19.20;10.82;;;5.50;99.90;;;;;;5008953;28;20474;-60
2023/01/11 09:15:45;;;;;;;15.88;10.43;;;5.60;99.90;;;;;;5009192;28;20021;-61
2023/01/11 09:18:11;;;;;;;10.38;9.13;;;5.60;99.90;;;;;;5012927;28;20041;-60
2023/01/11 09:20:37;;;;;;;16.92;10.13;;;5.60;99.90;;;;;;5015417;28;20029;-61
2023/01/11 09:23:03;;;;;;;16.60;10.73;;;5.70;99.90;;;;;;5012789;28;20037;-60
2023/01/11 09:25:28;;;;;;;10.95;8.45;;;5.70;99.90;;;;;;5016481;28;20064;-60
2023/01/11 09:27:54;;;;;;;17.08;9.73;;;5.80;99.90;;;;;;5013363;28;20496;-61
2023/01/11 09:30:22;;;;;;;12.50;8.80;;;5.90;99.90;;;;;;5003890;28;20056;-60
2023/01/11 09:32:49;;;;;;;12.23;8.82;;;5.90;99.90;;;;;;5001296;28;20031;-62
2023/01/11 09:35:15;;;;;;;12.70;8.30;;;5.90;99.90;;;;;;5011522;28;20026;-61
2023/01/11 09:37:47;;;;;;;12.82;9.93;;;5.90;99.90;;;;;;5014454;28;20549;-61
2023/01/11 09:40:35;;;;;;;14.40;8.63;;;5.90;99.90;;;;;;5013137;28;20129;-61
2023/01/11 09:43:03;;;;;;;10.00;7.55;;;5.90;99.90;;;;;;5007582;28;20025;-61
2023/01/11 09:45:31;;;;;;;7.57;6.38;;;5.90;99.90;;;;;;5007835;28;20065;-61
2023/01/11 09:48:16;;;;;;;8.63;6.28;;;5.90;99.90;;;;;;5012001;28;20112;-61
2023/01/11 09:50:44;;;;;;;11.20;6.28;;;6.00;99.90;;;;;;5014940;28;20482;-62
2023/01/11 09:53:33;;;;;;;13.75;6.47;;;6.00;99.90;;;;;;5010018;28;20033;-62
2023/01/11 09:56:03;;;;;;;9.93;6.40;;;6.10;99.90;;;;;;5012691;28;20030;-60
2023/01/11 09:59:05;;;;;;;7.73;5.40;;;6.10;99.90;;;;;;5004587;28;20048;-60
2023/01/11 10:01:33;;;;;;;;;;;6.10;99.90;;;;;;4972090;28;20395;-60
2023/01/11 10:04:51;;;;;;;7.40;5.50;;;6.10;99.90;;;;;;5015006;28;20280;-60
2023/01/11 10:07:21;;;;;;;7.30;5.75;;;6.10;99.90;;;;;;4964361;28;20808;-61
2023/01/11 10:10:04;;;;;;;6.75;5.75;;;6.20;99.90;;;;;;4986635;28;20038;-60
2023/01/11 10:12:44;;;;;;;7.32;6.18;;;6.20;99.90;;;;;;5010363;28;20113;-60
2023/01/11 10:15:31;;;;;;;11.15;6.47;;;6.20;99.90;;;;;;5015381;28;20056;-60
2023/01/11 10:18:12;;;;;;;11.20;6.97;;;6.20;99.90;;;;;;5001926;28;20033;-60
2023/01/11 10:20:43;;;;;;;9.07;7.15;;;6.20;99.90;;;;;;5007648;28;20099;-60
2023/01/11 10:23:34;;;;;;;6.90;6.20;;;6.20;99.90;;;;;;5011129;28;20045;-61
2023/01/11 10:26:08;;;;;;;10.95;6.35;;;6.10;99.90;;;;;;5014934;28;20038;-59
2023/01/11 10:28:44;;;;;;;9.15;6.53;;;6.10;99.90;;;;;;5015581;28;20032;-60
2023/01/11 10:34:29;;;;;;;7.57;6.00;;;6.10;99.90;;;;;;5015807;28;20038;-60
2023/01/11 10:40:36;;;;;;;9.90;7.13;;;6.10;99.90;;;;;;5008398;28;20033;-60
2023/01/11 10:43:15;;;;;;;9.23;6.45;;;6.10;99.90;;;;;;5004206;28;20030;-62
2023/01/11 10:45:42;;;;;;;10.88;6.97;;;6.10;99.90;;;;;;5006221;28;20155;-61
2023/01/11 10:48:30;;;;;;;6.90;6.13;;;6.10;99.90;;;;;;5007745;28;20560;-62
2023/01/11 10:51:28;;;;;;;12.73;7.00;;;6.10;99.90;;;;;;5013096;28;20034;-61
2023/01/11 10:53:58;;;;;;;7.55;6.13;;;6.10;99.90;;;;;;5008694;28;20553;-61
2023/01/11 10:56:39;;;;;;;8.80;6.15;;;6.10;99.90;;;;;;5006458;28;20123;-60
2023/01/11 10:59:36;;;;;;;13.95;6.68;;;6.10;99.90;;;;;;5007254;28;20025;-61
2023/01/11 11:02:46;;;;;;;9.20;6.38;;;6.10;99.90;;;;;;5012722;28;20030;-62
2023/01/11 11:05:36;;;;;;;13.57;6.95;;;6.20;99.90;;;;;;4998072;28;20026;-61
2023/01/11 11:08:25;;;;;;;7.03;6.32;;;6.10;99.90;;;;;;5017798;28;20018;-60
2023/01/11 11:11:05;;;;;;;7.57;6.78;;;6.10;99.90;;;;;;5006951;28;20525;-60
2023/01/11 11:13:54;;;;;;;7.32;6.55;;;6.10;99.90;;;;;;5002446;28;20027;-60
2023/01/11 11:16:22;;;;;;;9.30;6.93;;;6.10;99.90;;;;;;5014253;28;20029;-61
2023/01/11 11:18:54;;;;;;;9.00;6.38;;;6.10;99.90;;;;;;5014234;28;20025;-59
2023/01/11 11:21:28;;;;;;;;;;;6.10;99.90;;;;;;5011136;28;20026;-59
2023/01/11 11:24:04;;;;;;;10.05;7.20;;;6.10;99.90;;;;;;5011619;28;19998;-61
2023/01/11 11:26:45;;;;;;;8.73;7.07;;;6.10;99.90;;;;;;5007962;28;20514;-59
2023/01/11 11:29:18;;;;;;;;;;;6.10;99.90;;;;;;5006228;28;20483;-62
2023/01/11 11:31:45;;;;;;;7.70;6.50;;;6.10;99.90;;;;;;5004723;28;19928;-61
2023/01/11 11:34:18;;;;;;;9.23;6.88;;;6.10;99.90;;;;;;5007809;28;20036;-62
2023/01/11 11:36:49;;;;;;;9.63;7.88;;;6.20;99.90;;;;;;5007574;28;20060;-61
2023/01/11 11:39:20;;;;;;;;;;;6.20;99.90;;;;;;5005764;28;20102;-61
2023/01/11 11:41:49;;;;;;;7.75;6.38;;;6.20;99.90;;;;;;5014283;28;19917;-61
2023/01/11 11:44:23;;;;;;;8.27;5.88;;;6.20;99.90;;;;;;5017795;28;20095;-61
2023/01/11 11:47:03;;;;;;;9.10;5.25;;;6.20;99.90;;;;;;5010585;28;20073;-61
2023/01/11 11:49:34;;;;;;;5.72;4.85;;;6.30;99.90;;;;;;5011999;28;20446;-61
2023/01/11 11:52:01;;;;;;;9.15;5.38;;;6.30;99.90;;;;;;5011918;28;20040;-61
2023/01/11 11:54:34;;;;;;;7.63;5.68;;;6.30;99.90;;;;;;5013357;28;20319;-60
2023/01/11 11:57:15;;;;;;;8.38;5.80;;;6.40;99.90;;;;;;5005589;28;20427;-61
2023/01/11 11:59:46;;;;;;;10.65;6.95;;;6.40;99.90;;;;;;5020666;28;20035;-62
2023/01/11 12:02:26;;;;;;;;;;;6.40;99.90;;;;;;5009931;28;20080;-60
2023/01/11 12:04:55;;;;;;;7.93;5.80;;;6.40;99.90;;;;;;5012048;28;19913;-61
2023/01/11 12:07:27;;;;;;;9.15;7.03;;;6.50;99.90;;;;;;5010657;28;20112;-61
2023/01/11 12:09:56;;;;;;;9.43;6.40;;;6.50;99.90;;;;;;5014538;28;20037;-62
2023/01/11 12:12:22;;;;;;;8.77;6.63;;;6.50;99.90;;;;;;5016228;28;20576;-61
2023/01/11 12:15:14;;;;;;;7.55;6.82;;;6.50;99.90;;;;;;5012536;28;20030;-59
2023/01/11 12:17:40;;;;;;;12.05;6.70;;;6.50;99.90;;;;;;5016260;28;20671;-61
2023/01/11 12:20:21;;;;;;;7.65;5.85;;;6.60;99.90;;;;;;5015676;28;20146;-61
2023/01/11 12:23:06;;;;;;;10.20;6.55;;;6.60;99.90;;;;;;5012505;28;20026;-60
2023/01/11 12:25:39;;;;;;;9.55;6.43;;;6.70;99.90;;;;;;5013374;28;20041;-61
2023/01/11 12:28:47;;;;;;;8.43;6.20;;;6.70;99.90;;;;;;5010759;28;20568;-60
2023/01/11 12:31:12;;;;;;;9.88;5.50;;;6.80;99.90;;;;;;5014220;28;20084;-60
2023/01/11 12:33:47;;;;;;;5.85;5.05;;;6.80;99.90;;;;;;5013094;28;20030;-60
2023/01/11 12:36:34;;;;;;;8.18;5.40;;;6.90;99.90;;;;;;5010212;28;20033;-60
2023/01/11 12:39:13;;;;;;;7.20;4.20;;;6.90;99.90;;;;;;5008743;28;20046;-60
2023/01/11 12:42:17;;;;;;;3.83;3.40;;;7.00;99.90;;;;;;5012577;28;20033;-60
2023/01/11 12:45:01;;;;;;;4.97;2.15;;;7.00;99.90;;;;;;5013790;28;20041;-60
2023/01/11 12:47:51;;;;;;;3.97;2.03;;;7.10;99.90;;;;;;5014805;28;20498;-60
2023/01/11 12:50:24;;;;;;;5.18;2.22;;;7.20;99.90;;;;;;5012994;28;20034;-61
2023/01/11 12:53:23;;;;;;;3.50;2.08;;;7.30;99.90;;;;;;5011413;28;20491;-59
2023/01/11 12:56:10;;;;;;;4.70;2.28;;;7.30;99.90;;;;;;5010810;28;20041;-59
2023/01/11 12:58:56;;;;;;;5.70;2.00;;;7.40;99.90;;;;;;5010843;28;20044;-60
2023/01/11 13:01:38;;;;;;;8.43;2.35;;;7.40;99.90;;;;;;5002243;28;20029;-60
2023/01/11 13:04:10;;;;;;;3.65;2.00;;;7.40;99.90;;;;;;5011629;28;20386;-59
2023/01/11 13:06:56;;;;;;;6.38;2.28;;;7.40;99.90;;;;;;5009294;28;20026;-60
2023/01/11 13:09:40;;;;;;;3.58;2.40;;;7.40;99.90;;;;;;5006945;28;20029;-61
2023/01/11 13:12:26;;;;;;;4.55;1.98;;;7.40;99.90;;;;;;5005435;28;20030;-61
2023/01/11 13:15:16;;;;;;;4.40;2.10;;;7.40;99.90;;;;;;5009315;28;20033;-59
2023/01/11 13:18:00;;;;;;;10.73;2.58;;;7.40;99.90;;;;;;5008871;28;20026;-61
2023/01/11 13:20:41;;;;;;;3.42;2.10;;;7.50;99.90;;;;;;5012646;28;20037;-60
2023/01/11 13:23:23;;;;;;;2.17;1.98;;;7.50;99.90;;;;;;5014451;28;20121;-59
2023/01/11 13:25:51;;;;;;;7.45;2.30;;;7.50;99.90;;;;;;5017205;28;20026;-60
2023/01/11 13:28:32;;;;;;;5.38;2.42;;;7.50;99.90;;;;;;5009877;28;20023;-60
2023/01/11 13:31:01;;;;;;;2.38;2.00;;;7.50;99.90;;;;;;5007390;28;20045;-59
2023/01/11 13:33:29;;;;;;;2.88;2.03;;;7.50;99.90;;;;;;5008513;28;20026;-60
2023/01/11 13:36:03;;;;;;;4.38;1.77;;;7.60;99.90;;;;;;5011142;28;20148;-61
2023/01/11 13:38:48;;;;;;;2.10;1.70;;;7.60;99.90;;;;;;5010547;28;20038;-60
2023/01/11 13:41:17;;;;;;;2.42;1.80;;;7.60;99.90;;;;;;5019151;28;20038;-61
2023/01/11 13:43:54;;;;;;;6.88;2.00;;;7.60;99.90;;;;;;5014587;28;20045;-60
2023/01/11 13:46:37;;;;;;;2.30;1.80;;;7.60;99.90;;;;;;5010920;28;20109;-61